Time;durP1;ratioP1;P1;durP2;ratioP2;P2;SDS_P1;SDS_P2;PMS_P1;PMS_P2;Temp;Humidity;BMP_temperature;BMP_pressure;BME280_temperature;BME280_humidity;BME280_pressure;Samples;Min_cycle;Max_cycle;Signal;HPM_P1;HPM_P2
2021/05/13 00:01:47;;;;;;;1.97;1.53;;;23.30;50.90;;;;;;5051556;28;20180;-83
2021/05/13 00:04:13;;;;;;;2.73;1.77;;;23.40;50.90;;;;;;5050116;28;20254;-83
2021/05/13 00:06:39;;;;;;;2.10;1.90;;;23.40;50.90;;;;;;5049623;28;20440;-83
2021/05/13 00:09:09;;;;;;;1.70;1.60;;;23.40;50.90;;;;;;5047331;28;20430;-83
2021/05/13 00:11:36;;;;;;;1.87;1.57;;;23.40;50.90;;;;;;5028649;28;20541;-83
2021/05/13 00:14:05;;;;;;;1.80;1.50;;;23.40;50.90;;;;;;5025995;28;20465;-83
2021/05/13 00:16:33;;;;;;;2.20;1.50;;;23.40;50.90;;;;;;5025294;28;20422;-83
2021/05/13 00:19:05;;;;;;;1.70;1.57;;;23.40;50.90;;;;;;5029992;28;20471;-83
2021/05/13 00:21:31;;;;;;;1.70;1.60;;;23.40;50.90;;;;;;5047746;28;20421;-82
2021/05/13 00:23:57;;;;;;;2.30;1.40;;;23.40;50.90;;;;;;5029345;28;20477;-82
2021/05/13 00:26:59;;;;;;;1.87;1.47;;;23.40;50.90;;;;;;5030775;28;20176;-83
2021/05/13 00:29:26;;;;;;;1.80;1.50;;;23.40;50.90;;;;;;5040600;28;20251;-83
2021/05/13 00:31:51;;;;;;;2.53;2.33;;;23.30;50.80;;;;;;5036466;28;20422;-83
2021/05/13 00:34:17;;;;;;;2.13;1.50;;;23.30;50.80;;;;;;5054305;28;20429;-83
2021/05/13 00:36:43;;;;;;;1.63;1.53;;;23.30;50.90;;;;;;5036282;28;20180;-83
2021/05/13 00:39:13;;;;;;;1.73;1.50;;;23.30;50.80;;;;;;5039403;28;20195;-83
2021/05/13 00:41:39;;;;;;;1.53;1.23;;;23.40;50.80;;;;;;5020541;28;20211;-83
2021/05/13 00:44:06;;;;;;;2.23;1.63;;;23.30;50.80;;;;;;5033385;28;20776;-83
2021/05/13 00:46:33;;;;;;;1.87;1.73;;;23.30;50.80;;;;;;5026338;28;20202;-83
2021/05/13 00:49:04;;;;;;;1.30;1.20;;;23.30;50.80;;;;;;5035941;28;20418;-83
2021/05/13 00:51:31;;;;;;;2.33;1.90;;;23.30;50.70;;;;;;5039276;28;20414;-83
2021/05/13 00:53:58;;;;;;;1.67;1.57;;;23.20;50.70;;;;;;5028670;28;20418;-83
2021/05/13 00:56:26;;;;;;;2.50;1.50;;;23.30;50.80;;;;;;5053973;28;20418;-83
2021/05/13 00:58:54;;;;;;;2.73;1.80;;;23.30;50.70;;;;;;5029087;28;20462;-82
2021/05/13 01:01:22;;;;;;;1.80;1.60;;;23.30;50.80;;;;;;5031236;28;20421;-82
2021/05/13 01:03:48;;;;;;;1.70;1.60;;;23.20;50.80;;;;;;5046226;28;20756;-83
2021/05/13 01:06:15;;;;;;;2.40;1.83;;;23.30;50.80;;;;;;5043782;28;20442;-83
2021/05/13 01:08:42;;;;;;;2.27;1.50;;;23.20;50.80;;;;;;5043276;28;20593;-82
2021/05/13 01:11:10;;;;;;;1.60;1.50;;;23.20;50.80;;;;;;5028930;28;20501;-83
2021/05/13 01:14:13;;;;;;;1.43;1.33;;;23.30;51.00;;;;;;5028356;28;20845;-82
2021/05/13 01:16:50;;;;;;;1.80;1.50;;;23.30;50.70;;;;;;5033749;28;20497;-82
2021/05/13 01:19:17;;;;;;;1.80;1.30;;;23.20;50.70;;;;;;5034545;28;20455;-82
2021/05/13 01:21:45;;;;;;;1.70;1.50;;;23.20;50.80;;;;;;5034685;28;20417;-82
2021/05/13 01:24:12;;;;;;;1.30;1.10;;;23.20;50.80;;;;;;5046965;28;20418;-83
2021/05/13 01:26:41;;;;;;;1.67;1.40;;;23.20;50.80;;;;;;5037104;28;20440;-83
2021/05/13 01:29:07;;;;;;;1.73;1.57;;;23.20;50.70;;;;;;5050028;28;20425;-83
2021/05/13 01:31:33;;;;;;;1.57;1.40;;;23.20;50.80;;;;;;5039329;28;20418;-83
2021/05/13 01:33:59;;;;;;;2.43;1.70;;;23.20;50.80;;;;;;5038304;28;20178;-83
2021/05/13 01:36:25;;;;;;;1.57;1.47;;;23.20;50.90;;;;;;5038575;28;20188;-82
2021/05/13 01:38:53;;;;;;;2.27;1.30;;;23.20;51.00;;;;;;5057668;28;20210;-82
2021/05/13 01:41:19;;;;;;;2.37;1.63;;;23.20;51.00;;;;;;5059297;28;20471;-83
2021/05/13 01:43:45;;;;;;;1.60;1.40;;;23.20;51.00;;;;;;5060021;28;20414;-83
2021/05/13 01:46:10;;;;;;;1.50;1.20;;;23.20;51.00;;;;;;5025855;28;20423;-83
2021/05/13 01:48:36;;;;;;;1.70;1.47;;;23.20;50.90;;;;;;5055347;28;20200;-83
2021/05/13 01:51:02;;;;;;;2.17;1.50;;;23.20;51.00;;;;;;5041407;28;20179;-83
2021/05/13 01:53:28;;;;;;;1.50;1.40;;;23.30;51.10;;;;;;5041009;28;20633;-83
2021/05/13 01:55:53;;;;;;;2.57;1.80;;;23.20;50.90;;;;;;5037991;28;20179;-83
2021/05/13 01:58:19;;;;;;;1.47;1.37;;;23.30;51.10;;;;;;5033357;28;20208;-83
2021/05/13 02:00:45;;;;;;;1.77;1.53;;;23.30;51.10;;;;;;5034103;28;20190;-83
2021/05/13 02:03:12;;;;;;;1.63;1.50;;;23.30;51.00;;;;;;5040303;28;20180;-83
2021/05/13 02:05:38;;;;;;;1.97;1.70;;;23.30;51.10;;;;;;5058672;28;20424;-83
2021/05/13 02:08:05;;;;;;;1.50;1.40;;;23.20;50.90;;;;;;5030900;28;20500;-83
2021/05/13 02:10:31;;;;;;;2.30;1.67;;;23.30;50.90;;;;;;5055241;28;20418;-83
2021/05/13 02:12:57;;;;;;;1.70;1.60;;;23.30;50.90;;;;;;5037612;28;20513;-83
2021/05/13 02:15:23;;;;;;;2.30;1.43;;;23.30;51.00;;;;;;5040890;28;20449;-83
2021/05/13 02:17:49;;;;;;;2.00;1.70;;;23.30;51.00;;;;;;5040282;28;20298;-83
2021/05/13 02:20:20;;;;;;;1.50;1.40;;;23.30;51.00;;;;;;5029203;28;20431;-83
2021/05/13 02:22:46;;;;;;;1.30;1.10;;;23.30;50.90;;;;;;5055002;28;20186;-83
2021/05/13 02:25:12;;;;;;;1.70;1.60;;;23.30;50.90;;;;;;5040193;28;20450;-82
2021/05/13 02:27:41;;;;;;;1.90;1.60;;;23.30;50.90;;;;;;5034254;28;20510;-82
2021/05/13 02:30:09;;;;;;;1.50;1.33;;;23.30;50.90;;;;;;5021174;28;20438;-82
2021/05/13 02:32:34;;;;;;;1.20;1.10;;;23.30;50.90;;;;;;5030160;28;20440;-82
2021/05/13 02:35:00;;;;;;;1.63;1.30;;;23.30;50.90;;;;;;5050168;28;20422;-82
2021/05/13 02:37:26;;;;;;;1.53;1.33;;;23.30;51.00;;;;;;5010619;28;20462;-83
2021/05/13 02:39:52;;;;;;;2.03;1.40;;;23.30;51.00;;;;;;5031155;28;20186;-82
2021/05/13 02:43:12;;;;;;;1.70;1.60;;;23.20;50.80;;;;;;5025203;28;20187;-82
2021/05/13 02:45:37;;;;;;;1.73;1.40;;;23.30;50.70;;;;;;5042171;28;20247;-82
2021/05/13 02:48:03;;;;;;;2.50;1.50;;;23.20;50.70;;;;;;5022844;28;20427;-83
2021/05/13 02:50:29;;;;;;;1.73;1.63;;;23.20;50.70;;;;;;5024877;28;20180;-83
2021/05/13 02:52:55;;;;;;;1.97;1.30;;;23.20;50.70;;;;;;5045525;28;20784;-83
2021/05/13 02:55:24;;;;;;;1.33;1.23;;;23.20;50.70;;;;;;5049994;28;20281;-82
2021/05/13 02:57:50;;;;;;;3.00;1.30;;;23.20;50.70;;;;;;5067986;28;20230;-83
2021/05/13 03:00:21;;;;;;;1.40;1.27;;;23.20;50.80;;;;;;5049450;28;20907;-83
2021/05/13 03:02:47;;;;;;;1.60;1.50;;;23.20;50.70;;;;;;5050050;28;20235;-83
2021/05/13 03:05:14;;;;;;;1.80;1.60;;;23.20;50.80;;;;;;5046790;28;20477;-83
2021/05/13 03:07:50;;;;;;;1.80;1.50;;;23.20;50.70;;;;;;5056027;28;20185;-82
2021/05/13 03:10:25;;;;;;;1.43;1.30;;;23.20;50.70;;;;;;5055959;28;20441;-83
2021/05/13 03:12:54;;;;;;;1.57;1.10;;;23.20;50.70;;;;;;5031493;28;20481;-83
2021/05/13 03:15:20;;;;;;;1.37;1.27;;;23.20;50.80;;;;;;5032953;28;20445;-83
2021/05/13 03:17:47;;;;;;;1.53;1.40;;;23.20;50.70;;;;;;5031060;28;20454;-83
2021/05/13 03:20:16;;;;;;;1.50;1.20;;;23.20;50.80;;;;;;5031294;28;20421;-83
2021/05/13 03:22:42;;;;;;;1.70;1.60;;;23.20;50.70;;;;;;5013284;28;20462;-82
2021/05/13 03:25:08;;;;;;;1.30;1.17;;;23.20;50.80;;;;;;5028058;28;20760;-82
2021/05/13 03:30:20;;;;;;;1.23;1.07;;;23.20;50.70;;;;;;5027225;28;20473;-83
2021/05/13 03:32:45;;;;;;;3.57;1.30;;;23.20;50.90;;;;;;5010309;28;20502;-83
2021/05/13 03:36:06;;;;;;;1.30;1.20;;;23.10;50.80;;;;;;5043406;28;20892;-83
2021/05/13 03:38:31;;;;;;;1.60;1.30;;;23.20;50.70;;;;;;5029031;28;20199;-84
2021/05/13 03:40:57;;;;;;;1.40;1.30;;;23.10;50.80;;;;;;5029146;28;20429;-84
2021/05/13 03:43:23;;;;;;;1.47;1.20;;;23.10;50.80;;;;;;5027823;28;20163;-84
2021/05/13 03:45:49;;;;;;;1.93;1.40;;;23.10;50.80;;;;;;5029286;28;20182;-84
2021/05/13 03:48:14;;;;;;;1.50;1.40;;;23.10;50.70;;;;;;5047323;28;20179;-84
2021/05/13 03:50:40;;;;;;;1.43;1.30;;;23.10;50.80;;;;;;5016006;28;20204;-84
2021/05/13 03:53:07;;;;;;;1.97;1.37;;;23.10;50.80;;;;;;5014931;28;20184;-84
2021/05/13 03:55:33;;;;;;;1.60;1.47;;;23.10;50.80;;;;;;5017358;28;20431;-84
2021/05/13 04:01:44;;;;;;;1.50;1.33;;;23.10;50.70;;;;;;5039502;28;20393;-84
2021/05/13 04:04:11;;;;;;;1.50;1.40;;;23.10;50.90;;;;;;5045784;28;20757;-84
2021/05/13 04:06:36;;;;;;;1.20;0.93;;;23.00;50.80;;;;;;5028427;28;20420;-85
2021/05/13 04:09:08;;;;;;;1.20;1.00;;;23.00;50.90;;;;;;5030326;28;20454;-85
2021/05/13 04:11:40;;;;;;;1.30;1.20;;;23.10;50.90;;;;;;5019985;28;20434;-83
2021/05/13 04:14:08;;;;;;;1.40;1.30;;;23.00;50.90;;;;;;5031214;28;20505;-85
2021/05/13 04:16:38;;;;;;;1.13;1.00;;;23.00;50.90;;;;;;5049546;28;20474;-84
2021/05/13 04:19:04;;;;;;;1.40;1.00;;;23.00;51.00;;;;;;5050467;28;20453;-85
2021/05/13 04:21:30;;;;;;;1.67;1.40;;;23.00;51.00;;;;;;5032638;28;20419;-85
2021/05/13 04:23:56;;;;;;;1.20;1.10;;;23.00;50.90;;;;;;5023770;28;20433;-84
2021/05/13 04:26:22;;;;;;;1.90;1.50;;;23.00;51.00;;;;;;5049716;28;20415;-84
2021/05/13 04:28:51;;;;;;;1.63;1.23;;;23.00;51.10;;;;;;5028771;28;20434;-84
2021/05/13 04:31:17;;;;;;;1.50;1.30;;;23.00;50.90;;;;;;5020797;28;20191;-85
2021/05/13 04:33:46;;;;;;;1.33;1.20;;;23.00;50.90;;;;;;5013419;28;20868;-84
2021/05/13 04:36:11;;;;;;;1.90;1.40;;;23.10;51.10;;;;;;5022071;28;20433;-84
2021/05/13 04:38:37;;;;;;;1.90;1.20;;;23.00;50.90;;;;;;5034062;28;20446;-84
2021/05/13 04:41:03;;;;;;;1.60;1.50;;;23.10;50.90;;;;;;5028043;28;20184;-84
2021/05/13 04:43:37;;;;;;;1.70;1.40;;;23.00;51.00;;;;;;5021506;28;20180;-84
2021/05/13 04:46:05;;;;;;;1.80;1.50;;;23.10;51.00;;;;;;5030920;28;20172;-84
2021/05/13 04:48:56;;;;;;;1.43;1.20;;;23.10;51.10;;;;;;5031026;28;20419;-84
2021/05/13 04:51:30;;;;;;;1.50;1.20;;;23.10;51.00;;;;;;5029761;28;20427;-83
2021/05/13 04:53:57;;;;;;;1.60;1.50;;;23.10;51.10;;;;;;5033515;28;20410;-85
2021/05/13 04:56:23;;;;;;;1.40;1.23;;;23.10;51.10;;;;;;5052042;28;20403;-85
2021/05/13 04:58:50;;;;;;;1.60;1.20;;;23.10;51.10;;;;;;5051003;28;20454;-85
2021/05/13 05:01:16;;;;;;;1.70;1.50;;;23.10;51.10;;;;;;5033639;28;20498;-85
2021/05/13 05:03:45;;;;;;;1.37;1.20;;;23.10;51.00;;;;;;5017362;28;20485;-85
2021/05/13 05:06:12;;;;;;;1.50;1.40;;;23.10;51.10;;;;;;5050913;28;20452;-84
2021/05/13 05:08:41;;;;;;;1.50;1.40;;;23.10;51.10;;;;;;5023939;28;20539;-84
2021/05/13 05:11:11;;;;;;;1.63;1.20;;;23.10;51.00;;;;;;5030835;28;20434;-84
2021/05/13 05:13:37;;;;;;;1.20;1.03;;;23.10;51.00;;;;;;5048105;28;20441;-85
2021/05/13 05:16:03;;;;;;;1.53;1.30;;;23.10;51.10;;;;;;5028365;28;20458;-85
2021/05/13 05:18:29;;;;;;;1.50;1.30;;;23.10;51.00;;;;;;5029977;28;20447;-84
2021/05/13 05:20:55;;;;;;;2.43;1.40;;;23.10;51.10;;;;;;5039551;28;20472;-85
2021/05/13 05:23:36;;;;;;;2.10;1.60;;;23.10;51.20;;;;;;5034901;28;20180;-84
2021/05/13 05:26:02;;;;;;;1.43;1.23;;;23.20;51.10;;;;;;5030220;28;20501;-84
2021/05/13 05:28:28;;;;;;;1.30;1.20;;;23.10;51.10;;;;;;5034152;28;20458;-85
2021/05/13 05:41:08;;;;;;;1.57;1.07;;;23.10;51.10;;;;;;5038896;28;20390;-84
2021/05/13 05:43:33;;;;;;;1.30;1.00;;;23.10;51.30;;;;;;5034609;28;20427;-84
2021/05/13 05:45:59;;;;;;;1.20;1.10;;;23.00;51.10;;;;;;5021540;28;20425;-84
2021/05/13 05:48:25;;;;;;;1.40;1.20;;;23.20;51.30;;;;;;5024118;28;20179;-84
2021/05/13 05:50:59;;;;;;;1.47;1.30;;;23.10;51.10;;;;;;5027483;28;20661;-84
2021/05/13 05:53:25;;;;;;;1.27;1.10;;;23.10;51.00;;;;;;5052309;28;20179;-84
2021/05/13 05:55:51;;;;;;;1.10;1.00;;;23.10;50.90;;;;;;5047293;28;20432;-84
2021/05/13 05:58:17;;;;;;;1.20;1.10;;;23.10;50.90;;;;;;5023043;28;20455;-84
2021/05/13 06:00:43;;;;;;;1.43;1.00;;;23.10;50.90;;;;;;5027559;28;20424;-85
2021/05/13 06:03:08;;;;;;;1.80;1.50;;;23.10;51.50;;;;;;5027859;28;20176;-85
2021/05/13 06:05:36;;;;;;;1.30;1.13;;;23.20;51.00;;;;;;5027468;28;20421;-85
2021/05/13 06:08:04;;;;;;;1.57;1.47;;;23.10;50.90;;;;;;5042659;28;20534;-85
2021/05/13 06:10:30;;;;;;;1.20;1.10;;;23.10;50.90;;;;;;5025655;28;20588;-85
2021/05/13 06:12:56;;;;;;;1.60;1.40;;;23.10;51.10;;;;;;5045508;28;20426;-86
2021/05/13 06:15:23;;;;;;;1.17;1.03;;;23.20;51.00;;;;;;5048514;28;20652;-85
2021/05/13 06:17:49;;;;;;;1.27;1.07;;;23.20;51.00;;;;;;5032428;28;20217;-84
2021/05/13 06:20:24;;;;;;;1.30;1.10;;;23.20;51.00;;;;;;5026215;28;20420;-85
2021/05/13 06:22:51;;;;;;;1.30;1.17;;;23.20;50.90;;;;;;5046317;28;20172;-84
2021/05/13 06:25:17;;;;;;;1.20;1.10;;;23.20;51.00;;;;;;5042849;28;20407;-84
2021/05/13 06:27:44;;;;;;;1.40;1.30;;;23.20;51.10;;;;;;5011638;28;20435;-84
2021/05/13 06:30:11;;;;;;;1.13;1.03;;;23.20;51.00;;;;;;5037682;28;20419;-85
2021/05/13 06:32:37;;;;;;;1.40;1.30;;;23.20;50.90;;;;;;5026570;28;20418;-85
2021/05/13 06:35:04;;;;;;;1.13;1.03;;;23.20;51.10;;;;;;5041437;28;20418;-85
2021/05/13 06:37:30;;;;;;;1.40;1.17;;;23.20;50.90;;;;;;5022099;28;20289;-85
2021/05/13 06:39:57;;;;;;;1.90;1.50;;;23.20;51.10;;;;;;5024374;28;20416;-85
2021/05/13 06:42:23;;;;;;;1.53;1.37;;;23.20;50.90;;;;;;5044971;28;20167;-85
2021/05/13 06:44:49;;;;;;;1.30;0.97;;;23.20;50.90;;;;;;5037489;28;20444;-85
2021/05/13 06:47:15;;;;;;;1.17;0.97;;;23.20;50.90;;;;;;5024969;28;20431;-85
2021/05/13 06:49:41;;;;;;;1.43;1.33;;;23.20;50.90;;;;;;5029661;28;20180;-85
2021/05/13 06:52:07;;;;;;;1.33;1.23;;;23.20;50.80;;;;;;5029501;28;20180;-84
2021/05/13 06:54:33;;;;;;;1.30;1.07;;;23.20;50.80;;;;;;5046077;28;20236;-85
2021/05/13 06:56:59;;;;;;;2.00;1.33;;;23.20;50.80;;;;;;5050131;28;20180;-85
2021/05/13 06:59:26;;;;;;;1.47;1.00;;;23.20;50.90;;;;;;5032603;28;20451;-84
2021/05/13 07:01:55;;;;;;;1.60;1.50;;;23.20;50.90;;;;;;5023109;28;20180;-84
2021/05/13 07:04:24;;;;;;;1.67;1.30;;;23.20;50.90;;;;;;5052204;28;20422;-86
2021/05/13 07:06:51;;;;;;;1.53;1.20;;;23.20;50.90;;;;;;5038774;28;20428;-83
2021/05/13 07:09:17;;;;;;;1.33;1.10;;;23.20;50.90;;;;;;5035823;28;20426;-85
2021/05/13 07:11:43;;;;;;;1.30;1.20;;;23.20;50.90;;;;;;5036688;28;20412;-85
2021/05/13 07:14:09;;;;;;;1.83;1.20;;;23.20;51.00;;;;;;5057041;28;20286;-85
2021/05/13 07:16:34;;;;;;;1.57;1.20;;;23.30;51.00;;;;;;5036815;28;20509;-85
2021/05/13 07:19:02;;;;;;;1.50;1.07;;;23.30;51.00;;;;;;5053251;28;20442;-84
2021/05/13 07:21:28;;;;;;;1.20;1.10;;;23.30;50.90;;;;;;5022766;28;20183;-85
2021/05/13 07:23:53;;;;;;;1.70;1.20;;;23.40;50.90;;;;;;5046989;28;20422;-85
2021/05/13 07:26:20;;;;;;;1.40;1.30;;;23.40;50.90;;;;;;5049374;28;20474;-85
2021/05/13 07:28:46;;;;;;;1.20;1.10;;;23.40;50.90;;;;;;5033954;28;20179;-84
2021/05/13 07:31:12;;;;;;;1.50;1.40;;;23.40;50.90;;;;;;5044312;28;20422;-84
2021/05/13 07:33:37;;;;;;;1.23;1.13;;;23.50;50.90;;;;;;5034238;28;20445;-84
2021/05/13 07:36:04;;;;;;;1.50;1.13;;;23.40;50.90;;;;;;5047328;28;20579;-85
2021/05/13 07:38:30;;;;;;;1.30;1.20;;;23.50;50.90;;;;;;5029030;28;20206;-85
2021/05/13 07:40:58;;;;;;;1.53;1.40;;;23.50;50.90;;;;;;5038716;28;20915;-85
2021/05/13 07:43:25;;;;;;;1.37;1.13;;;23.50;50.80;;;;;;5053668;28;20318;-85
2021/05/13 07:45:50;;;;;;;1.73;1.63;;;23.50;50.80;;;;;;5053564;28;20426;-85
2021/05/13 07:48:16;;;;;;;1.37;1.20;;;23.50;50.90;;;;;;5035396;28;20448;-85
2021/05/13 07:51:08;;;;;;;1.57;1.47;;;23.50;50.90;;;;;;5056977;28;20200;-85
2021/05/13 07:53:35;;;;;;;1.70;1.50;;;23.60;50.80;;;;;;5028672;28;20434;-86
2021/05/13 07:56:01;;;;;;;2.33;1.57;;;23.50;50.80;;;;;;5052966;28;20766;-85
2021/05/13 07:58:27;;;;;;;2.37;2.07;;;23.60;51.00;;;;;;5054832;28;20549;-85
2021/05/13 08:00:53;;;;;;;2.40;2.20;;;23.60;50.90;;;;;;5029819;28;20428;-85
2021/05/13 08:03:19;;;;;;;1.90;1.67;;;23.60;50.90;;;;;;5035698;28;20597;-84
2021/05/13 08:05:44;;;;;;;2.70;1.83;;;23.60;50.90;;;;;;5054089;28;20183;-84
2021/05/13 08:08:12;;;;;;;2.40;2.20;;;23.60;51.10;;;;;;5039284;28;20428;-85
2021/05/13 08:11:06;;;;;;;3.03;2.23;;;23.60;50.90;;;;;;5042120;28;20193;-85
2021/05/13 08:13:32;;;;;;;2.83;2.10;;;23.70;50.90;;;;;;5056045;28;20477;-85
2021/05/13 08:15:58;;;;;;;2.20;2.00;;;23.60;50.90;;;;;;5039109;28;20426;-84
2021/05/13 08:18:24;;;;;;;2.40;2.20;;;23.70;51.00;;;;;;5058005;28;20665;-85
2021/05/13 08:20:50;;;;;;;2.20;2.00;;;23.70;50.90;;;;;;5042967;28;20181;-85
2021/05/13 08:23:16;;;;;;;2.37;2.10;;;23.70;50.90;;;;;;5058479;28;20638;-84
2021/05/13 08:25:41;;;;;;;2.77;2.50;;;23.70;51.00;;;;;;5039091;28;20417;-84
2021/05/13 08:28:08;;;;;;;2.80;2.37;;;23.70;50.90;;;;;;5048823;28;20184;-85
2021/05/13 08:30:33;;;;;;;2.87;2.33;;;23.70;50.80;;;;;;5027974;28;20429;-85
2021/05/13 08:33:00;;;;;;;2.43;2.10;;;23.70;51.00;;;;;;5046929;28;20421;-83
2021/05/13 08:35:31;;;;;;;2.60;2.40;;;23.70;51.00;;;;;;5028246;28;20240;-84
2021/05/13 08:37:57;;;;;;;2.47;2.07;;;23.80;51.00;;;;;;5042534;28;20459;-83
2021/05/13 08:40:23;;;;;;;2.50;2.30;;;23.70;50.90;;;;;;5046166;28;20509;-84
2021/05/13 08:42:48;;;;;;;2.27;2.07;;;23.80;51.10;;;;;;5025770;28;20448;-83
2021/05/13 08:45:14;;;;;;;2.30;1.90;;;23.80;50.90;;;;;;5047528;28;20632;-83
2021/05/13 08:47:46;;;;;;;3.87;2.33;;;23.80;51.10;;;;;;5030108;28;20203;-84
2021/05/13 08:50:17;;;;;;;2.23;2.00;;;23.80;50.90;;;;;;5024623;28;20430;-84
2021/05/13 08:52:42;;;;;;;2.20;2.07;;;23.80;50.80;;;;;;5027965;28;20499;-84
2021/05/13 08:55:09;;;;;;;3.23;2.33;;;23.80;50.80;;;;;;5041745;28;20430;-85
2021/05/13 08:57:35;;;;;;;2.90;2.13;;;23.80;50.90;;;;;;5027321;28;20196;-84
2021/05/13 09:00:03;;;;;;;4.03;2.07;;;23.80;50.90;;;;;;5049187;28;20416;-84
2021/05/13 09:02:30;;;;;;;2.20;2.00;;;23.80;50.80;;;;;;5031637;28;20824;-84
2021/05/13 09:04:58;;;;;;;3.07;2.40;;;23.80;50.90;;;;;;5031587;28;20417;-84
2021/05/13 09:07:28;;;;;;;2.47;2.00;;;23.80;50.80;;;;;;5031181;28;20414;-84
2021/05/13 09:10:14;;;;;;;2.90;2.10;;;23.80;50.80;;;;;;5048341;28;20436;-84
2021/05/13 09:12:48;;;;;;;3.67;2.17;;;23.90;50.90;;;;;;5031445;28;20441;-83
2021/05/13 09:15:22;;;;;;;2.80;1.90;;;23.80;50.90;;;;;;5031147;28;20498;-84
2021/05/13 09:18:00;;;;;;;2.47;2.27;;;23.90;50.90;;;;;;5047749;28;20438;-83
2021/05/13 09:20:29;;;;;;;6.90;2.73;;;23.90;50.90;;;;;;5031628;28;20457;-84
2021/05/13 09:23:10;;;;;;;2.80;2.30;;;23.80;50.90;;;;;;5030602;28;20924;-84
2021/05/13 09:25:36;;;;;;;3.83;2.20;;;23.90;50.90;;;;;;5030199;28;20495;-84
2021/05/13 09:28:02;;;;;;;3.77;1.90;;;23.90;51.00;;;;;;5029807;28;20430;-83
2021/05/13 09:30:29;;;;;;;3.97;1.93;;;23.80;50.90;;;;;;5030898;28;20908;-84
2021/05/13 09:33:00;;;;;;;3.13;1.80;;;23.90;51.00;;;;;;5047851;28;20450;-84
2021/05/13 09:35:35;;;;;;;2.50;1.83;;;23.90;50.90;;;;;;5029320;28;20422;-84
2021/05/13 09:38:04;;;;;;;5.03;1.90;;;23.90;51.00;;;;;;5048184;28;20445;-84
2021/05/13 09:40:35;;;;;;;5.13;1.77;;;23.90;50.90;;;;;;5030122;28;20601;-83
2021/05/13 09:43:21;;;;;;;2.67;1.80;;;23.90;50.90;;;;;;5029818;28;20518;-83
2021/05/13 09:45:53;;;;;;;3.07;1.90;;;23.90;50.90;;;;;;5030286;28;20509;-83
2021/05/13 09:48:46;;;;;;;5.03;2.30;;;23.90;51.10;;;;;;5030631;28;20418;-83
2021/05/13 09:51:22;;;;;;;3.30;1.77;;;23.90;50.90;;;;;;5048213;28;20415;-83
2021/05/13 09:54:06;;;;;;;2.20;1.83;;;23.90;50.90;;;;;;5029672;28;20426;-83
2021/05/13 09:56:32;;;;;;;3.20;1.90;;;23.90;51.00;;;;;;5029691;28;20461;-84
2021/05/13 09:58:58;;;;;;;5.20;2.50;;;23.90;51.00;;;;;;5028744;28;20802;-84
2021/05/13 10:01:36;;;;;;;4.23;2.10;;;23.90;51.00;;;;;;5030285;28;20414;-84
2021/05/13 10:04:05;;;;;;;3.83;2.10;;;24.00;51.10;;;;;;5030963;28;20167;-84
2021/05/13 10:07:26;;;;;;;2.63;1.80;;;23.90;51.00;;;;;;5030703;28;20421;-84
2021/05/13 10:10:55;;;;;;;;;;;;;;;;;;;;;
2021/05/13 10:34:49;;;;;;;;;;;;;;;;;;;;;
2021/05/13 10:51:28;;;;;;;2.43;2.03;;;24.00;51.00;;;;;;4916225;29;20401;-84
2021/05/13 11:05:19;;;;;;;5.63;3.03;;;24.00;51.10;;;;;;4925000;29;20953;-88
2021/05/13 11:08:16;;;;;;;4.30;3.13;;;23.90;51.10;;;;;;4846347;29;20443;-84
2021/05/13 11:11:50;;;;;;;;;;;;;;;;;;;;;
2021/05/13 11:21:18;;;;;;;6.40;4.00;;;23.90;51.10;;;;;;4798926;30;20390;-83
2021/05/13 11:28:16;;;;;;;7.60;4.13;;;23.90;51.00;;;;;;4800068;30;20405;-83
2021/05/13 11:31:20;;;;;;;8.27;4.87;;;23.90;51.10;;;;;;4787783;30;20554;-84
2021/05/13 11:34:37;;;;;;;8.60;4.80;;;23.90;51.10;;;;;;4807751;29;20432;-83
2021/05/13 11:44:12;;;;;;;24.70;9.40;;;23.90;51.20;;;;;;4826524;29;20417;-83
2021/05/13 11:50:37;;;;;;;30.93;12.53;;;23.90;51.20;;;;;;4861434;29;20428;-83
2021/05/13 11:53:23;;;;;;;25.73;13.10;;;23.90;51.30;;;;;;4901921;29;20416;-83
2021/05/13 11:55:53;;;;;;;31.53;14.47;;;23.80;51.20;;;;;;4915184;29;20397;-83
2021/05/13 12:08:45;;;;;;;32.17;16.90;;;23.90;51.30;;;;;;5011735;28;20388;-85
2021/05/13 12:11:33;;;;;;;;;;;;;;;;;;;;;
2021/05/13 12:14:28;;;;;;;34.63;17.80;;;23.90;51.30;;;;;;5053303;28;20413;-84
2021/05/13 12:17:41;;;;;;;;;;;;;;;;;;;;;
2021/05/13 12:27:28;;;;;;;34.93;17.00;;;23.80;51.40;;;;;;4983773;28;20413;-85
2021/05/13 12:33:56;;;;;;;37.63;18.17;;;23.80;51.30;;;;;;4935130;28;20494;-84
2021/05/13 12:43:40;;;;;;;32.87;18.23;;;23.70;51.20;;;;;;4933375;29;20415;-85
2021/05/13 12:46:35;;;;;;;32.63;17.20;;;23.70;51.40;;;;;;4934460;29;20416;-84
2021/05/13 12:52:23;;;;;;;40.63;18.50;;;23.70;51.40;;;;;;4913303;29;20447;-85
2021/05/13 12:55:25;;;;;;;35.47;17.73;;;23.70;51.40;;;;;;4932309;29;20426;-85
2021/05/13 12:58:21;;;;;;;;;;;;;;;;;;;;;
2021/05/13 13:07:30;;;;;;;35.87;18.67;;;23.70;51.40;;;;;;4959622;29;20430;-85
2021/05/13 13:10:37;;;;;;;35.83;18.37;;;23.60;51.50;;;;;;4952563;29;20425;-84
2021/05/13 13:34:05;;;;;;;29.30;17.17;;;23.50;51.50;;;;;;4908247;29;20407;-85
2021/05/13 13:37:08;;;;;;;41.10;20.30;;;23.40;51.40;;;;;;4909214;29;20531;-85
2021/05/13 13:39:58;;;;;;;34.63;18.30;;;23.50;51.60;;;;;;4908790;29;20472;-85
2021/05/13 13:42:41;;;;;;;33.90;16.73;;;23.50;51.60;;;;;;4966981;29;20422;-85
2021/05/13 13:45:25;;;;;;;35.47;18.50;;;23.60;51.60;;;;;;4949654;29;20423;-84
2021/05/13 13:48:14;;;;;;;35.70;17.73;;;23.60;51.70;;;;;;4950966;29;20450;-84
2021/05/13 13:50:49;;;;;;;34.97;18.60;;;23.50;51.60;;;;;;4969096;28;20974;-85
2021/05/13 13:53:27;;;;;;;42.10;19.77;;;23.40;51.60;;;;;;4952266;29;20416;-85
2021/05/13 14:02:52;;;;;;;30.90;16.83;;;23.50;51.60;;;;;;4970496;29;20414;-84
2021/05/13 14:05:27;;;;;;;36.07;16.03;;;23.40;51.60;;;;;;4948472;29;20434;-80
2021/05/13 14:16:30;;;;;;;30.90;17.93;;;23.40;51.60;;;;;;5362262;23;20471;-83
2021/05/13 14:22:26;;;;;;;26.50;15.80;;;23.40;51.60;;;;;;5018351;28;20364;-83
2021/05/13 14:25:07;;;;;;;36.47;16.60;;;23.40;51.70;;;;;;5015128;28;20432;-84
2021/05/13 14:27:42;;;;;;;33.77;16.53;;;23.50;51.80;;;;;;4979353;28;20505;-83
2021/05/13 14:30:30;;;;;;;32.00;15.83;;;23.40;51.90;;;;;;4979590;28;20487;-83
2021/05/13 14:33:29;;;;;;;29.70;14.77;;;23.40;51.80;;;;;;4992741;28;20494;-83
2021/05/13 14:35:58;;;;;;;26.20;15.10;;;23.50;51.80;;;;;;4993635;28;20416;-82
2021/05/13 14:38:35;;;;;;;29.23;16.23;;;23.40;51.80;;;;;;4992974;28;20487;-83
2021/05/13 14:41:12;;;;;;;29.27;16.30;;;23.50;51.80;;;;;;4993698;28;20419;-82
2021/05/13 14:43:49;;;;;;;31.40;18.03;;;23.40;51.80;;;;;;5002855;28;20415;-83
2021/05/13 14:46:31;;;;;;;25.80;14.83;;;23.30;51.60;;;;;;5009243;28;20416;-82
2021/05/13 14:49:08;;;;;;;31.70;14.83;;;23.40;51.70;;;;;;5008810;28;20416;-84
2021/05/13 14:51:37;;;;;;;25.90;16.70;;;23.40;51.80;;;;;;5008219;28;20768;-84
2021/05/13 14:54:07;;;;;;;24.63;16.07;;;23.40;51.80;;;;;;5009548;28;20463;-83
2021/05/13 14:56:36;;;;;;;34.10;16.60;;;23.40;51.70;;;;;;5010258;28;20594;-83
2021/05/13 14:59:07;;;;;;;27.50;15.57;;;23.40;51.80;;;;;;4999462;28;20551;-83
2021/05/13 15:01:33;;;;;;;29.47;15.90;;;23.40;51.90;;;;;;4991260;28;20401;-83
2021/05/13 15:04:03;;;;;;;28.60;14.27;;;23.50;52.00;;;;;;4989325;28;20437;-84
2021/05/13 15:06:32;;;;;;;21.63;14.73;;;23.50;51.80;;;;;;5003131;28;20972;-84
2021/05/13 15:12:19;;;;;;;26.57;13.80;;;23.60;51.70;;;;;;5001473;28;20910;-83
2021/05/13 15:14:48;;;;;;;25.13;14.10;;;23.60;52.00;;;;;;4990414;28;20428;-83
2021/05/13 15:17:14;;;;;;;19.20;12.30;;;23.60;51.80;;;;;;4990904;28;20263;-83
2021/05/13 15:19:42;;;;;;;24.97;14.00;;;23.70;51.90;;;;;;5009355;28;20870;-84
2021/05/13 15:22:08;;;;;;;22.57;13.70;;;23.70;51.70;;;;;;4991702;28;20184;-84
2021/05/13 15:24:37;;;;;;;22.33;13.07;;;23.70;51.70;;;;;;5009948;28;20404;-84
2021/05/13 15:27:03;;;;;;;23.93;12.50;;;23.70;51.80;;;;;;5000395;28;20201;-83
2021/05/13 15:32:51;;;;;;;20.30;12.10;;;23.80;51.70;;;;;;4990840;28;20388;-84
2021/05/13 15:35:16;;;;;;;23.10;12.90;;;23.70;52.00;;;;;;4992824;28;20484;-84
2021/05/13 15:37:42;;;;;;;19.60;11.27;;;23.80;52.00;;;;;;5004988;28;20181;-83
2021/05/13 15:40:08;;;;;;;22.20;12.27;;;23.80;51.80;;;;;;5011569;28;20173;-83
2021/05/13 15:42:37;;;;;;;19.20;11.90;;;23.80;51.80;;;;;;4993542;28;20177;-84
2021/05/13 15:45:06;;;;;;;19.10;12.27;;;23.70;51.60;;;;;;4991363;28;20423;-82
2021/05/13 15:47:32;;;;;;;20.63;10.40;;;23.80;51.80;;;;;;5010825;28;20418;-83
2021/05/13 15:49:59;;;;;;;22.70;11.47;;;23.90;52.00;;;;;;4984019;28;20496;-84
2021/05/13 15:52:33;;;;;;;21.97;12.13;;;23.90;52.00;;;;;;4990524;28;20634;-84
2021/05/13 15:54:59;;;;;;;19.37;11.40;;;23.90;51.80;;;;;;4972610;28;20421;-84
2021/05/13 15:57:34;;;;;;;20.07;12.50;;;23.90;52.00;;;;;;4990150;28;20488;-83
2021/05/13 16:00:04;;;;;;;21.70;11.90;;;24.00;51.90;;;;;;4988807;28;20453;-82
2021/05/13 16:02:33;;;;;;;21.20;10.23;;;24.00;51.80;;;;;;4978375;28;20425;-82